createdAt,value
2023-04-12T15:19:10.047Z,4.22
2023-04-12T15:22:00.467Z,5.30
2023-04-12T15:24:46.971Z,13.65
2023-04-12T15:27:33.549Z,3.03
2023-04-12T15:30:23.141Z,3.70
2023-04-12T15:33:09.525Z,1.70
2023-04-12T15:35:58.416Z,3.33
2023-04-12T15:38:44.870Z,2.97
2023-04-12T15:41:34.881Z,5.15
2023-04-12T15:44:21.828Z,4.30
2023-04-12T15:47:11.583Z,3.10
2023-04-12T15:49:58.232Z,2.97
2023-04-12T15:52:45.913Z,7.00
2023-04-12T15:55:31.951Z,14.98
2023-04-12T15:58:18.375Z,19.38
2023-04-12T16:01:05.162Z,19.90
2023-04-12T16:03:53.563Z,23.23
2023-04-12T16:06:40.230Z,5.82
2023-04-12T16:09:27.146Z,11.77
2023-04-12T16:12:13.082Z,7.32
2023-04-12T16:14:59.293Z,5.38
2023-04-12T16:17:49.352Z,3.90
2023-04-12T16:20:35.521Z,4.20
2023-04-12T16:23:22.536Z,3.33
2023-04-12T16:26:09.400Z,6.75
2023-04-12T16:28:55.659Z,5.50
2023-04-12T16:31:42.296Z,7.78
2023-04-12T16:34:31.849Z,4.07
2023-04-12T16:37:18.312Z,8.55
2023-04-12T16:40:13.685Z,2.83
2023-04-12T16:43:00.796Z,8.35
2023-04-12T16:45:48.579Z,25.63
2023-04-12T16:48:44.740Z,8.57
2023-04-12T16:51:36.762Z,7.65
2023-04-12T16:54:24.106Z,6.35
2023-04-12T16:57:13.408Z,3.65
2023-04-12T17:00:00.725Z,12.82
2023-04-12T17:02:48.951Z,6.57
2023-04-12T17:05:36.160Z,11.70
2023-04-12T17:08:23.006Z,8.35
2023-04-12T17:11:09.268Z,6.07
2023-04-12T17:13:55.589Z,8.20
2023-04-12T17:16:45.466Z,14.63
2023-04-12T17:19:34.748Z,11.98
2023-04-12T17:22:21.354Z,12.70
2023-04-12T17:25:09.930Z,7.68
2023-04-12T17:27:56.348Z,14.38
2023-04-12T17:30:42.890Z,7.32
2023-04-12T17:33:29.274Z,6.88
2023-04-12T17:36:15.549Z,5.88
2023-04-12T17:39:04.827Z,7.43
2023-04-12T17:42:03.766Z,7.60
2023-04-12T17:44:50.946Z,16.38
2023-04-12T17:47:44.620Z,18.05
2023-04-12T17:50:37.832Z,11.95
2023-04-12T17:53:36.217Z,11.27
2023-04-12T17:56:22.560Z,11.50
2023-04-12T17:59:47.223Z,14.98
2023-04-12T18:02:54.788Z,10.48
2023-04-12T18:05:51.706Z,8.02
2023-04-12T18:08:45.409Z,7.22
2023-04-12T18:11:52.337Z,16.33
2023-04-12T18:14:47.565Z,8.98
2023-04-12T18:17:46.832Z,11.50
2023-04-12T18:20:38.048Z,8.85
2023-04-12T18:23:23.989Z,12.73
2023-04-12T18:26:11.707Z,19.70
2023-04-12T18:29:01.602Z,8.02
2023-04-12T18:31:51.697Z,7.03
2023-04-12T18:34:38.464Z,8.82
2023-04-12T18:37:29.599Z,14.73
2023-04-12T18:40:41.384Z,12.00
2023-04-12T18:43:27.741Z,9.27
2023-04-12T18:46:18.122Z,6.45
2023-04-12T18:49:10.743Z,12.02
2023-04-12T18:51:59.112Z,8.15
2023-04-12T18:54:45.545Z,9.43
2023-04-12T18:57:31.914Z,8.00
2023-04-12T19:01:19.396Z,14.23
2023-04-12T19:03:51.277Z,14.63
2023-04-12T19:06:46.457Z,22.30
2023-04-12T19:09:49.780Z,25.95
2023-04-12T19:12:47.444Z,15.95
2023-04-12T19:15:36.697Z,11.48
2023-04-12T19:18:23.617Z,25.92
2023-04-12T19:21:10.138Z,13.05
2023-04-12T19:23:57.156Z,11.32
2023-04-12T19:27:15.248Z,10.98
2023-04-12T19:30:17.265Z,13.18
2023-04-12T19:33:30.092Z,14.05
2023-04-12T19:39:31.231Z,14.65
2023-04-12T19:42:18.340Z,17.63
2023-04-12T19:45:04.925Z,15.52
2023-04-12T19:47:51.240Z,15.23
2023-04-12T19:50:37.707Z,12.45
2023-04-12T19:53:24.345Z,12.63
2023-04-12T19:56:12.903Z,18.08
2023-04-12T19:59:00.004Z,17.50
2023-04-12T20:01:49.894Z,11.77
2023-04-12T20:04:36.403Z,17.02
2023-04-12T20:07:26.520Z,11.50
2023-04-12T20:10:47.278Z,26.20
2023-04-12T20:14:01.152Z,27.77
2023-04-12T20:16:57.832Z,28.10
2023-04-12T20:19:45.911Z,28.00
2023-04-12T20:22:55.485Z,23.25
2023-04-12T20:25:53.333Z,22.33
2023-04-12T20:28:43.908Z,20.65
2023-04-12T20:31:30.713Z,26.13
2023-04-12T20:34:17.774Z,35.38
2023-04-12T20:37:03.822Z,15.38
2023-04-12T20:39:51.531Z,28.40
2023-04-12T20:42:38.045Z,16.95
2023-04-12T20:45:25.131Z,15.65
2023-04-12T20:48:12.620Z,14.73
2023-04-12T20:50:58.551Z,15.20
2023-04-12T20:53:47.479Z,11.55
2023-04-12T20:56:33.638Z,14.18
2023-04-12T20:59:24.234Z,17.60
2023-04-12T21:05:17.100Z,21.17
2023-04-12T21:08:07.559Z,23.77
2023-04-12T21:10:53.801Z,28.30
2023-04-12T21:13:40.742Z,23.08
2023-04-12T21:16:27.611Z,17.80
2023-04-12T21:19:17.457Z,15.32
2023-04-12T21:22:03.974Z,15.85
2023-04-12T21:24:50.418Z,14.80
2023-04-12T21:27:37.545Z,10.63
2023-04-12T21:30:23.727Z,9.88
2023-04-12T21:33:14.239Z,8.65
2023-04-12T21:36:01.437Z,20.88
2023-04-12T21:38:47.867Z,26.63
2023-04-12T21:41:34.240Z,30.92
2023-04-12T21:44:22.335Z,21.88
2023-04-12T21:47:08.891Z,11.32
2023-04-12T21:49:54.775Z,13.55
2023-04-12T21:52:43.123Z,12.25
2023-04-12T21:55:29.435Z,15.13
2023-04-12T21:58:19.467Z,10.30
2023-04-12T22:01:05.675Z,18.63
2023-04-12T22:03:52.983Z,11.40
2023-04-12T22:06:39.212Z,11.52
2023-04-12T22:09:25.597Z,20.20
2023-04-12T22:12:12.331Z,12.00
2023-04-12T22:14:58.572Z,11.05
2023-04-12T22:17:45.486Z,11.85
2023-04-12T22:20:33.677Z,18.88
2023-04-12T22:23:19.479Z,15.13
2023-04-12T22:26:09.543Z,15.73
2023-04-12T22:28:55.338Z,11.13
2023-04-12T22:31:43.572Z,9.27
2023-04-12T22:34:29.901Z,12.95
2023-04-12T22:37:16.238Z,11.82
2023-04-12T22:40:02.468Z,13.43
2023-04-12T22:42:48.722Z,13.65
2023-04-12T22:45:35.923Z,12.65
2023-04-12T22:48:25.108Z,10.13
2023-04-12T22:51:11.321Z,14.07
2023-04-12T22:53:59.162Z,11.80
2023-04-12T22:56:45.575Z,15.75
2023-04-12T22:59:31.695Z,10.95
2023-04-12T23:02:17.808Z,13.88
2023-04-12T23:05:05.235Z,15.13
2023-04-12T23:07:52.325Z,11.20
2023-04-12T23:10:38.970Z,14.40
2023-04-12T23:13:25.159Z,15.43
2023-04-12T23:16:11.322Z,13.18
2023-04-12T23:18:59.277Z,16.90
2023-04-12T23:21:45.236Z,15.70
2023-04-12T23:24:31.124Z,12.07
2023-04-12T23:27:17.239Z,12.98
2023-04-12T23:30:03.761Z,11.48
2023-04-12T23:32:50.146Z,14.32
2023-04-12T23:35:39.449Z,15.05
2023-04-12T23:38:32.751Z,13.45
2023-04-12T23:41:19.555Z,12.13
2023-04-12T23:44:06.661Z,12.90
2023-04-12T23:46:53.172Z,12.93
2023-04-12T23:49:39.171Z,12.95
2023-04-12T23:52:25.188Z,10.27
2023-04-12T23:55:11.148Z,8.90
2023-04-12T23:57:57.385Z,10.50
